sensor_id;sensor_type;location;lat;lon;timestamp;P1;durP1;ratioP1;P2;durP2;ratioP2
67602;SDS011;54417;47.454;18.918;2022-10-16T00:00:52;9.95;;;5.35;;
67602;SDS011;54417;47.454;18.918;2022-10-16T00:06:16;12.07;;;5.30;;
67602;SDS011;54417;47.454;18.918;2022-10-16T00:11:41;12.43;;;5.93;;
67602;SDS011;54417;47.454;18.918;2022-10-16T00:17:06;11.57;;;5.90;;
67602;SDS011;54417;47.454;18.918;2022-10-16T00:22:29;11.15;;;6.20;;
67602;SDS011;54417;47.454;18.918;2022-10-16T00:27:53;8.93;;;5.07;;
67602;SDS011;54417;47.454;18.918;2022-10-16T00:33:18;10.57;;;5.07;;
67602;SDS011;54417;47.454;18.918;2022-10-16T00:38:42;11.07;;;6.18;;
67602;SDS011;54417;47.454;18.918;2022-10-16T00:50:02;11.93;;;5.65;;
67602;SDS011;54417;47.454;18.918;2022-10-16T00:55:30;9.75;;;5.80;;
67602;SDS011;54417;47.454;18.918;2022-10-16T01:00:54;9.38;;;5.57;;
67602;SDS011;54417;47.454;18.918;2022-10-16T01:06:31;10.85;;;4.72;;
67602;SDS011;54417;47.454;18.918;2022-10-16T01:12:04;9.13;;;5.75;;
67602;SDS011;54417;47.454;18.918;2022-10-16T01:17:33;10.88;;;5.28;;
67602;SDS011;54417;47.454;18.918;2022-10-16T01:23:06;7.07;;;5.15;;
67602;SDS011;54417;47.454;18.918;2022-10-16T01:28:41;12.45;;;4.75;;
67602;SDS011;54417;47.454;18.918;2022-10-16T01:34:10;8.55;;;5.45;;
67602;SDS011;54417;47.454;18.918;2022-10-16T01:39:38;7.45;;;5.10;;
67602;SDS011;54417;47.454;18.918;2022-10-16T01:45:06;11.27;;;5.82;;
67602;SDS011;54417;47.454;18.918;2022-10-16T01:50:34;9.20;;;5.57;;
67602;SDS011;54417;47.454;18.918;2022-10-16T01:56:00;9.60;;;5.32;;
67602;SDS011;54417;47.454;18.918;2022-10-16T02:01:28;12.20;;;6.03;;
67602;SDS011;54417;47.454;18.918;2022-10-16T02:06:55;9.30;;;5.63;;
67602;SDS011;54417;47.454;18.918;2022-10-16T02:12:19;12.85;;;6.35;;
67602;SDS011;54417;47.454;18.918;2022-10-16T02:17:48;8.95;;;5.70;;
67602;SDS011;54417;47.454;18.918;2022-10-16T02:23:12;16.13;;;6.00;;
67602;SDS011;54417;47.454;18.918;2022-10-16T02:28:44;7.95;;;5.72;;
67602;SDS011;54417;47.454;18.918;2022-10-16T02:34:11;13.77;;;5.97;;
67602;SDS011;54417;47.454;18.918;2022-10-16T02:39:37;7.95;;;5.88;;
67602;SDS011;54417;47.454;18.918;2022-10-16T02:45:02;11.38;;;6.00;;
67602;SDS011;54417;47.454;18.918;2022-10-16T02:50:27;9.93;;;6.60;;
67602;SDS011;54417;47.454;18.918;2022-10-16T02:55:51;13.40;;;5.95;;
67602;SDS011;54417;47.454;18.918;2022-10-16T03:01:15;13.77;;;6.20;;
67602;SDS011;54417;47.454;18.918;2022-10-16T03:06:40;9.48;;;6.63;;
67602;SDS011;54417;47.454;18.918;2022-10-16T03:12:04;12.98;;;6.97;;
67602;SDS011;54417;47.454;18.918;2022-10-16T03:17:28;11.40;;;6.88;;
67602;SDS011;54417;47.454;18.918;2022-10-16T03:22:53;13.55;;;6.78;;
67602;SDS011;54417;47.454;18.918;2022-10-16T03:28:17;13.88;;;7.43;;
67602;SDS011;54417;47.454;18.918;2022-10-16T03:33:40;16.25;;;7.70;;
67602;SDS011;54417;47.454;18.918;2022-10-16T03:39:05;12.85;;;7.72;;
67602;SDS011;54417;47.454;18.918;2022-10-16T03:44:29;13.63;;;6.93;;
67602;SDS011;54417;47.454;18.918;2022-10-16T03:49:53;10.93;;;6.97;;
67602;SDS011;54417;47.454;18.918;2022-10-16T03:55:18;12.93;;;7.43;;
67602;SDS011;54417;47.454;18.918;2022-10-16T04:00:42;12.18;;;8.60;;
67602;SDS011;54417;47.454;18.918;2022-10-16T04:06:06;11.73;;;8.25;;
67602;SDS011;54417;47.454;18.918;2022-10-16T04:11:32;14.48;;;8.63;;
67602;SDS011;54417;47.454;18.918;2022-10-16T04:16:55;13.02;;;8.32;;
67602;SDS011;54417;47.454;18.918;2022-10-16T04:22:19;12.32;;;8.23;;
67602;SDS011;54417;47.454;18.918;2022-10-16T04:27:44;16.33;;;7.50;;
67602;SDS011;54417;47.454;18.918;2022-10-16T04:33:08;16.45;;;7.70;;
67602;SDS011;54417;47.454;18.918;2022-10-16T04:38:32;10.57;;;7.95;;
67602;SDS011;54417;47.454;18.918;2022-10-16T04:43:57;14.75;;;8.73;;
67602;SDS011;54417;47.454;18.918;2022-10-16T04:49:21;11.80;;;9.00;;
67602;SDS011;54417;47.454;18.918;2022-10-16T04:54:44;18.60;;;8.57;;
67602;SDS011;54417;47.454;18.918;2022-10-16T05:00:10;15.07;;;9.32;;
67602;SDS011;54417;47.454;18.918;2022-10-16T05:05:34;13.85;;;8.57;;
67602;SDS011;54417;47.454;18.918;2022-10-16T05:10:58;16.67;;;9.15;;
67602;SDS011;54417;47.454;18.918;2022-10-16T05:16:23;19.65;;;10.52;;
67602;SDS011;54417;47.454;18.918;2022-10-16T05:21:47;24.30;;;10.50;;
67602;SDS011;54417;47.454;18.918;2022-10-16T05:27:11;17.00;;;9.13;;
67602;SDS011;54417;47.454;18.918;2022-10-16T05:32:45;19.10;;;10.38;;
67602;SDS011;54417;47.454;18.918;2022-10-16T05:38:09;15.13;;;8.65;;
67602;SDS011;54417;47.454;18.918;2022-10-16T05:43:33;16.80;;;9.90;;
67602;SDS011;54417;47.454;18.918;2022-10-16T05:48:58;21.08;;;9.52;;
67602;SDS011;54417;47.454;18.918;2022-10-16T05:54:21;16.17;;;9.02;;
67602;SDS011;54417;47.454;18.918;2022-10-16T05:59:45;14.95;;;9.23;;
67602;SDS011;54417;47.454;18.918;2022-10-16T06:05:10;16.65;;;8.93;;
67602;SDS011;54417;47.454;18.918;2022-10-16T06:10:34;16.30;;;8.38;;
67602;SDS011;54417;47.454;18.918;2022-10-16T06:15:58;18.95;;;9.02;;
67602;SDS011;54417;47.454;18.918;2022-10-16T06:21:24;13.93;;;8.88;;
67602;SDS011;54417;47.454;18.918;2022-10-16T06:26:49;13.52;;;8.43;;
67602;SDS011;54417;47.454;18.918;2022-10-16T06:32:12;11.88;;;8.10;;
67602;SDS011;54417;47.454;18.918;2022-10-16T06:37:37;12.98;;;7.18;;
67602;SDS011;54417;47.454;18.918;2022-10-16T06:43:01;21.08;;;7.32;;
67602;SDS011;54417;47.454;18.918;2022-10-16T06:48:24;14.07;;;6.93;;
67602;SDS011;54417;47.454;18.918;2022-10-16T06:53:51;12.48;;;6.93;;
67602;SDS011;54417;47.454;18.918;2022-10-16T06:59:24;11.60;;;6.95;;
67602;SDS011;54417;47.454;18.918;2022-10-16T07:04:48;10.57;;;6.47;;
67602;SDS011;54417;47.454;18.918;2022-10-16T07:10:14;10.07;;;6.22;;
67602;SDS011;54417;47.454;18.918;2022-10-16T07:15:37;10.25;;;7.10;;
67602;SDS011;54417;47.454;18.918;2022-10-16T07:21:04;17.67;;;6.05;;
67602;SDS011;54417;47.454;18.918;2022-10-16T07:26:31;9.13;;;6.80;;
67602;SDS011;54417;47.454;18.918;2022-10-16T07:31:56;13.70;;;6.97;;
67602;SDS011;54417;47.454;18.918;2022-10-16T07:37:20;8.55;;;5.90;;
67602;SDS011;54417;47.454;18.918;2022-10-16T07:42:46;8.38;;;5.82;;
67602;SDS011;54417;47.454;18.918;2022-10-16T07:48:10;7.88;;;6.07;;
67602;SDS011;54417;47.454;18.918;2022-10-16T07:53:33;12.20;;;6.00;;
67602;SDS011;54417;47.454;18.918;2022-10-16T07:58:58;10.02;;;6.00;;
67602;SDS011;54417;47.454;18.918;2022-10-16T08:04:22;9.63;;;5.97;;
67602;SDS011;54417;47.454;18.918;2022-10-16T08:09:48;10.27;;;5.70;;
67602;SDS011;54417;47.454;18.918;2022-10-16T08:15:13;8.48;;;5.90;;
67602;SDS011;54417;47.454;18.918;2022-10-16T08:20:37;10.63;;;5.85;;
67602;SDS011;54417;47.454;18.918;2022-10-16T08:26:02;13.50;;;6.30;;
67602;SDS011;54417;47.454;18.918;2022-10-16T08:31:28;10.95;;;6.88;;
67602;SDS011;54417;47.454;18.918;2022-10-16T08:36:52;11.27;;;6.00;;
67602;SDS011;54417;47.454;18.918;2022-10-16T08:42:19;10.85;;;6.15;;
67602;SDS011;54417;47.454;18.918;2022-10-16T08:47:56;11.43;;;7.07;;
67602;SDS011;54417;47.454;18.918;2022-10-16T08:53:30;11.02;;;6.53;;
67602;SDS011;54417;47.454;18.918;2022-10-16T08:58:59;11.77;;;6.63;;
67602;SDS011;54417;47.454;18.918;2022-10-16T09:04:38;11.15;;;5.80;;
67602;SDS011;54417;47.454;18.918;2022-10-16T09:10:21;9.63;;;6.53;;
67602;SDS011;54417;47.454;18.918;2022-10-16T09:15:55;8.40;;;5.72;;
67602;SDS011;54417;47.454;18.918;2022-10-16T09:21:27;13.18;;;6.47;;
67602;SDS011;54417;47.454;18.918;2022-10-16T09:26:53;10.30;;;6.70;;
67602;SDS011;54417;47.454;18.918;2022-10-16T09:32:17;12.65;;;6.88;;
67602;SDS011;54417;47.454;18.918;2022-10-16T09:37:45;13.02;;;6.93;;
67602;SDS011;54417;47.454;18.918;2022-10-16T09:43:19;11.43;;;5.95;;
67602;SDS011;54417;47.454;18.918;2022-10-16T09:48:47;8.98;;;6.05;;
67602;SDS011;54417;47.454;18.918;2022-10-16T09:54:14;9.90;;;5.90;;
67602;SDS011;54417;47.454;18.918;2022-10-16T09:59:45;10.18;;;5.60;;
67602;SDS011;54417;47.454;18.918;2022-10-16T10:10:42;9.27;;;6.00;;
67602;SDS011;54417;47.454;18.918;2022-10-16T10:16:06;10.45;;;6.28;;
67602;SDS011;54417;47.454;18.918;2022-10-16T10:21:32;7.53;;;5.53;;
67602;SDS011;54417;47.454;18.918;2022-10-16T10:27:00;9.50;;;5.35;;
67602;SDS011;54417;47.454;18.918;2022-10-16T10:32:32;14.40;;;5.90;;
67602;SDS011;54417;47.454;18.918;2022-10-16T10:38:04;13.73;;;6.07;;
67602;SDS011;54417;47.454;18.918;2022-10-16T10:43:42;11.20;;;5.20;;
67602;SDS011;54417;47.454;18.918;2022-10-16T10:49:22;7.72;;;4.88;;
67602;SDS011;54417;47.454;18.918;2022-10-16T10:54:59;10.43;;;5.03;;
67602;SDS011;54417;47.454;18.918;2022-10-16T11:00:36;10.77;;;5.13;;
67602;SDS011;54417;47.454;18.918;2022-10-16T11:06:11;9.10;;;4.82;;
67602;SDS011;54417;47.454;18.918;2022-10-16T11:11:40;5.10;;;4.23;;
67602;SDS011;54417;47.454;18.918;2022-10-16T11:17:08;11.40;;;5.18;;
67602;SDS011;54417;47.454;18.918;2022-10-16T11:22:36;4.95;;;3.90;;
67602;SDS011;54417;47.454;18.918;2022-10-16T11:28:03;6.22;;;4.40;;
67602;SDS011;54417;47.454;18.918;2022-10-16T11:33:36;8.80;;;4.70;;
67602;SDS011;54417;47.454;18.918;2022-10-16T11:44:36;7.60;;;4.15;;
67602;SDS011;54417;47.454;18.918;2022-10-16T11:50:13;10.02;;;4.10;;
67602;SDS011;54417;47.454;18.918;2022-10-16T11:55:44;4.45;;;3.45;;
67602;SDS011;54417;47.454;18.918;2022-10-16T12:01:14;7.82;;;3.55;;
67602;SDS011;54417;47.454;18.918;2022-10-16T12:06:43;6.03;;;3.88;;
67602;SDS011;54417;47.454;18.918;2022-10-16T12:12:26;7.90;;;3.47;;
67602;SDS011;54417;47.454;18.918;2022-10-16T12:17:55;10.30;;;4.15;;
67602;SDS011;54417;47.454;18.918;2022-10-16T12:23:21;6.35;;;3.60;;
67602;SDS011;54417;47.454;18.918;2022-10-16T12:28:45;6.60;;;3.53;;
67602;SDS011;54417;47.454;18.918;2022-10-16T12:34:14;5.00;;;3.97;;
67602;SDS011;54417;47.454;18.918;2022-10-16T12:39:46;5.55;;;3.72;;
67602;SDS011;54417;47.454;18.918;2022-10-16T12:45:30;8.25;;;3.80;;
67602;SDS011;54417;47.454;18.918;2022-10-16T12:51:11;10.93;;;3.83;;
67602;SDS011;54417;47.454;18.918;2022-10-16T12:56:41;9.00;;;3.80;;
67602;SDS011;54417;47.454;18.918;2022-10-16T13:08:20;8.15;;;3.85;;
67602;SDS011;54417;47.454;18.918;2022-10-16T13:14:09;7.13;;;3.42;;
67602;SDS011;54417;47.454;18.918;2022-10-16T13:19:48;6.07;;;3.70;;
67602;SDS011;54417;47.454;18.918;2022-10-16T13:25:22;9.15;;;3.55;;
67602;SDS011;54417;47.454;18.918;2022-10-16T13:30:53;8.02;;;2.90;;
67602;SDS011;54417;47.454;18.918;2022-10-16T13:36:21;9.40;;;3.88;;
67602;SDS011;54417;47.454;18.918;2022-10-16T13:41:46;8.48;;;3.22;;
67602;SDS011;54417;47.454;18.918;2022-10-16T13:47:30;10.48;;;4.10;;
67602;SDS011;54417;47.454;18.918;2022-10-16T13:53:03;4.82;;;2.95;;
67602;SDS011;54417;47.454;18.918;2022-10-16T13:58:27;7.57;;;3.38;;
67602;SDS011;54417;47.454;18.918;2022-10-16T14:03:52;13.95;;;4.18;;
67602;SDS011;54417;47.454;18.918;2022-10-16T14:09:18;9.60;;;3.22;;
67602;SDS011;54417;47.454;18.918;2022-10-16T14:14:46;13.65;;;3.95;;
67602;SDS011;54417;47.454;18.918;2022-10-16T14:20:14;5.50;;;2.95;;
67602;SDS011;54417;47.454;18.918;2022-10-16T14:25:38;3.60;;;2.72;;
67602;SDS011;54417;47.454;18.918;2022-10-16T14:31:02;6.57;;;3.25;;
67602;SDS011;54417;47.454;18.918;2022-10-16T14:36:48;7.10;;;2.75;;
67602;SDS011;54417;47.454;18.918;2022-10-16T14:42:14;5.30;;;3.13;;
67602;SDS011;54417;47.454;18.918;2022-10-16T14:47:45;12.65;;;3.45;;
67602;SDS011;54417;47.454;18.918;2022-10-16T14:53:13;10.05;;;3.13;;
67602;SDS011;54417;47.454;18.918;2022-10-16T14:58:37;5.18;;;3.17;;
67602;SDS011;54417;47.454;18.918;2022-10-16T15:04:01;5.50;;;3.38;;
67602;SDS011;54417;47.454;18.918;2022-10-16T15:09:26;6.88;;;3.15;;
67602;SDS011;54417;47.454;18.918;2022-10-16T15:14:50;6.85;;;3.45;;
67602;SDS011;54417;47.454;18.918;2022-10-16T15:20:13;5.40;;;2.78;;
67602;SDS011;54417;47.454;18.918;2022-10-16T15:25:39;6.72;;;3.42;;
67602;SDS011;54417;47.454;18.918;2022-10-16T15:31:06;5.28;;;3.42;;
67602;SDS011;54417;47.454;18.918;2022-10-16T15:36:30;6.00;;;3.38;;
67602;SDS011;54417;47.454;18.918;2022-10-16T15:41:59;5.43;;;3.60;;
67602;SDS011;54417;47.454;18.918;2022-10-16T15:47:23;5.20;;;3.55;;
67602;SDS011;54417;47.454;18.918;2022-10-16T15:52:47;6.15;;;3.95;;
67602;SDS011;54417;47.454;18.918;2022-10-16T15:58:12;10.45;;;4.78;;
67602;SDS011;54417;47.454;18.918;2022-10-16T16:03:36;9.55;;;5.00;;
67602;SDS011;54417;47.454;18.918;2022-10-16T16:09:02;7.75;;;4.95;;
67602;SDS011;54417;47.454;18.918;2022-10-16T16:14:27;10.98;;;5.05;;
67602;SDS011;54417;47.454;18.918;2022-10-16T16:19:51;10.80;;;4.95;;
67602;SDS011;54417;47.454;18.918;2022-10-16T16:25:15;10.30;;;5.55;;
67602;SDS011;54417;47.454;18.918;2022-10-16T16:30:40;10.35;;;6.15;;
67602;SDS011;54417;47.454;18.918;2022-10-16T16:36:05;9.02;;;6.20;;
67602;SDS011;54417;47.454;18.918;2022-10-16T16:41:36;13.18;;;9.38;;
67602;SDS011;54417;47.454;18.918;2022-10-16T16:47:01;9.27;;;6.57;;
67602;SDS011;54417;47.454;18.918;2022-10-16T16:52:25;10.20;;;6.88;;
67602;SDS011;54417;47.454;18.918;2022-10-16T16:57:52;8.07;;;6.15;;
67602;SDS011;54417;47.454;18.918;2022-10-16T17:03:17;18.98;;;8.68;;
67602;SDS011;54417;47.454;18.918;2022-10-16T17:08:41;14.55;;;7.60;;
67602;SDS011;54417;47.454;18.918;2022-10-16T17:14:05;10.95;;;7.18;;
67602;SDS011;54417;47.454;18.918;2022-10-16T17:19:31;13.60;;;7.38;;
67602;SDS011;54417;47.454;18.918;2022-10-16T17:24:56;18.73;;;8.45;;
67602;SDS011;54417;47.454;18.918;2022-10-16T17:30:20;15.25;;;9.10;;
67602;SDS011;54417;47.454;18.918;2022-10-16T17:35:45;17.10;;;7.43;;
67602;SDS011;54417;47.454;18.918;2022-10-16T17:41:10;13.80;;;7.50;;
67602;SDS011;54417;47.454;18.918;2022-10-16T17:46:34;16.75;;;8.73;;
67602;SDS011;54417;47.454;18.918;2022-10-16T17:52:03;14.63;;;8.43;;
67602;SDS011;54417;47.454;18.918;2022-10-16T17:57:27;14.77;;;8.57;;
67602;SDS011;54417;47.454;18.918;2022-10-16T18:02:51;18.80;;;10.07;;
67602;SDS011;54417;47.454;18.918;2022-10-16T18:08:16;16.60;;;10.70;;
67602;SDS011;54417;47.454;18.918;2022-10-16T18:13:40;19.67;;;10.55;;
67602;SDS011;54417;47.454;18.918;2022-10-16T18:19:04;17.05;;;8.50;;
67602;SDS011;54417;47.454;18.918;2022-10-16T18:24:29;14.60;;;7.85;;
67602;SDS011;54417;47.454;18.918;2022-10-16T18:29:53;12.27;;;7.60;;
67602;SDS011;54417;47.454;18.918;2022-10-16T18:35:18;12.30;;;8.35;;
67602;SDS011;54417;47.454;18.918;2022-10-16T18:40:43;14.27;;;7.32;;
67602;SDS011;54417;47.454;18.918;2022-10-16T18:46:07;14.85;;;8.07;;
67602;SDS011;54417;47.454;18.918;2022-10-16T18:51:33;12.38;;;7.88;;
67602;SDS011;54417;47.454;18.918;2022-10-16T18:56:59;11.68;;;7.93;;
67602;SDS011;54417;47.454;18.918;2022-10-16T19:02:22;13.30;;;8.65;;
67602;SDS011;54417;47.454;18.918;2022-10-16T19:07:46;18.13;;;11.35;;
67602;SDS011;54417;47.454;18.918;2022-10-16T19:13:11;21.60;;;12.32;;
67602;SDS011;54417;47.454;18.918;2022-10-16T19:18:35;22.00;;;11.25;;
67602;SDS011;54417;47.454;18.918;2022-10-16T19:24:00;18.45;;;10.23;;
67602;SDS011;54417;47.454;18.918;2022-10-16T19:29:26;26.60;;;12.60;;
67602;SDS011;54417;47.454;18.918;2022-10-16T19:34:52;20.65;;;12.43;;
67602;SDS011;54417;47.454;18.918;2022-10-16T19:40:17;21.40;;;12.48;;
67602;SDS011;54417;47.454;18.918;2022-10-16T19:45:42;28.05;;;14.52;;
67602;SDS011;54417;47.454;18.918;2022-10-16T19:51:06;25.13;;;13.23;;
67602;SDS011;54417;47.454;18.918;2022-10-16T19:56:34;16.73;;;10.52;;
67602;SDS011;54417;47.454;18.918;2022-10-16T20:02:00;17.33;;;10.38;;
67602;SDS011;54417;47.454;18.918;2022-10-16T20:07:23;16.13;;;10.23;;
67602;SDS011;54417;47.454;18.918;2022-10-16T20:12:52;15.27;;;9.27;;
67602;SDS011;54417;47.454;18.918;2022-10-16T20:18:17;25.90;;;11.38;;
67602;SDS011;54417;47.454;18.918;2022-10-16T20:23:41;18.10;;;10.38;;
67602;SDS011;54417;47.454;18.918;2022-10-16T20:29:05;18.00;;;9.63;;
67602;SDS011;54417;47.454;18.918;2022-10-16T20:34:31;18.25;;;9.10;;
67602;SDS011;54417;47.454;18.918;2022-10-16T20:39:54;17.48;;;9.52;;
67602;SDS011;54417;47.454;18.918;2022-10-16T20:45:18;12.75;;;8.55;;
67602;SDS011;54417;47.454;18.918;2022-10-16T20:50:44;13.60;;;8.88;;
67602;SDS011;54417;47.454;18.918;2022-10-16T20:56:10;13.90;;;9.10;;
67602;SDS011;54417;47.454;18.918;2022-10-16T21:01:34;19.45;;;8.77;;
67602;SDS011;54417;47.454;18.918;2022-10-16T21:06:59;23.35;;;10.05;;
67602;SDS011;54417;47.454;18.918;2022-10-16T21:12:23;32.28;;;12.38;;
67602;SDS011;54417;47.454;18.918;2022-10-16T21:17:48;24.08;;;11.32;;
67602;SDS011;54417;47.454;18.918;2022-10-16T21:23:13;22.92;;;10.70;;
67602;SDS011;54417;47.454;18.918;2022-10-16T21:28:37;20.77;;;11.30;;
67602;SDS011;54417;47.454;18.918;2022-10-16T21:34:01;18.95;;;11.05;;
67602;SDS011;54417;47.454;18.918;2022-10-16T21:39:29;27.13;;;11.93;;
67602;SDS011;54417;47.454;18.918;2022-10-16T21:44:52;36.33;;;12.98;;
67602;SDS011;54417;47.454;18.918;2022-10-16T21:50:17;39.67;;;13.60;;
67602;SDS011;54417;47.454;18.918;2022-10-16T21:55:42;32.10;;;14.38;;
67602;SDS011;54417;47.454;18.918;2022-10-16T22:01:10;36.03;;;14.10;;
67602;SDS011;54417;47.454;18.918;2022-10-16T22:06:36;32.88;;;13.13;;
67602;SDS011;54417;47.454;18.918;2022-10-16T22:12:02;55.63;;;15.48;;
67602;SDS011;54417;47.454;18.918;2022-10-16T22:17:26;40.08;;;14.73;;
67602;SDS011;54417;47.454;18.918;2022-10-16T22:22:51;54.70;;;18.27;;
67602;SDS011;54417;47.454;18.918;2022-10-16T22:28:16;31.52;;;11.07;;
67602;SDS011;54417;47.454;18.918;2022-10-16T22:33:40;15.75;;;9.55;;
67602;SDS011;54417;47.454;18.918;2022-10-16T22:39:04;16.85;;;10.25;;
67602;SDS011;54417;47.454;18.918;2022-10-16T22:44:29;12.90;;;9.18;;
67602;SDS011;54417;47.454;18.918;2022-10-16T22:49:53;19.88;;;9.48;;
67602;SDS011;54417;47.454;18.918;2022-10-16T22:55:17;17.67;;;10.13;;
67602;SDS011;54417;47.454;18.918;2022-10-16T23:00:42;15.48;;;9.43;;
67602;SDS011;54417;47.454;18.918;2022-10-16T23:06:06;19.25;;;10.18;;
67602;SDS011;54417;47.454;18.918;2022-10-16T23:11:30;13.27;;;9.15;;
67602;SDS011;54417;47.454;18.918;2022-10-16T23:16:56;12.68;;;8.52;;
67602;SDS011;54417;47.454;18.918;2022-10-16T23:22:19;14.90;;;9.15;;
67602;SDS011;54417;47.454;18.918;2022-10-16T23:27:44;13.93;;;8.73;;
67602;SDS011;54417;47.454;18.918;2022-10-16T23:33:10;14.00;;;9.27;;
67602;SDS011;54417;47.454;18.918;2022-10-16T23:38:34;15.15;;;10.77;;
67602;SDS011;54417;47.454;18.918;2022-10-16T23:43:57;15.50;;;10.10;;
67602;SDS011;54417;47.454;18.918;2022-10-16T23:49:22;14.20;;;8.95;;
67602;SDS011;54417;47.454;18.918;2022-10-16T23:54:46;14.82;;;9.27;;
